sensor_id;sensor_type;location;lat;lon;timestamp;pressure;altitude;pressure_sealevel;temperature;humidity
47260;BME280;32999;52.412;4.890;2023-02-13T00:01:33;103830.31;;;10.57;100.00
47260;BME280;32999;52.412;4.890;2023-02-13T00:06:36;103817.16;;;10.54;100.00
47260;BME280;32999;52.412;4.890;2023-02-13T00:11:38;103814.38;;;10.55;100.00
47260;BME280;32999;52.412;4.890;2023-02-13T00:16:39;103771.38;;;10.22;100.00
47260;BME280;32999;52.412;4.890;2023-02-13T00:21:43;103724.13;;;9.86;100.00
47260;BME280;32999;52.412;4.890;2023-02-13T00:26:44;103738.50;;;10.09;100.00
47260;BME280;32999;52.412;4.890;2023-02-13T00:31:46;103832.78;;;10.47;100.00
47260;BME280;32999;52.412;4.890;2023-02-13T00:36:49;103803.69;;;10.43;100.00
47260;BME280;32999;52.412;4.890;2023-02-13T00:41:51;103819.75;;;10.43;100.00
47260;BME280;32999;52.412;4.890;2023-02-13T00:46:54;103800.69;;;10.47;100.00
47260;BME280;32999;52.412;4.890;2023-02-13T00:51:57;103795.47;;;10.46;100.00
47260;BME280;32999;52.412;4.890;2023-02-13T00:56:58;103793.22;;;10.40;100.00
47260;BME280;32999;52.412;4.890;2023-02-13T01:02:00;103794.03;;;10.16;100.00
47260;BME280;32999;52.412;4.890;2023-02-13T01:07:04;103798.13;;;10.22;100.00
47260;BME280;32999;52.412;4.890;2023-02-13T01:12:06;103704.81;;;9.70;100.00
47260;BME280;32999;52.412;4.890;2023-02-13T01:17:08;103763.84;;;10.03;100.00
47260;BME280;32999;52.412;4.890;2023-02-13T01:22:12;103792.28;;;9.92;100.00
47260;BME280;32999;52.412;4.890;2023-02-13T01:27:17;103787.94;;;9.78;100.00
47260;BME280;32999;52.412;4.890;2023-02-13T01:32:20;103688.47;;;9.00;100.00
47260;BME280;32999;52.412;4.890;2023-02-13T01:37:23;103807.06;;;9.84;100.00
47260;BME280;32999;52.412;4.890;2023-02-13T01:42:28;103804.69;;;9.67;100.00
47260;BME280;32999;52.412;4.890;2023-02-13T01:47:32;103801.84;;;9.58;100.00
47260;BME280;32999;52.412;4.890;2023-02-13T01:52:43;103805.88;;;9.50;100.00
47260;BME280;32999;52.412;4.890;2023-02-13T01:57:50;103726.00;;;8.97;100.00
47260;BME280;32999;52.412;4.890;2023-02-13T02:02:58;103798.63;;;9.52;100.00
47260;BME280;32999;52.412;4.890;2023-02-13T02:08:05;103781.75;;;9.52;100.00
47260;BME280;32999;52.412;4.890;2023-02-13T02:13:12;103805.66;;;9.41;100.00
47260;BME280;32999;52.412;4.890;2023-02-13T02:18:18;103790.06;;;9.22;100.00
47260;BME280;32999;52.412;4.890;2023-02-13T02:23:56;103793.63;;;8.83;100.00
47260;BME280;32999;52.412;4.890;2023-02-13T02:34:53;103789.38;;;8.93;100.00
47260;BME280;32999;52.412;4.890;2023-02-13T02:40:04;103778.28;;;8.86;100.00
47260;BME280;32999;52.412;4.890;2023-02-13T02:45:16;103779.94;;;8.62;100.00
47260;BME280;32999;52.412;4.890;2023-02-13T02:50:33;103785.50;;;8.72;100.00
47260;BME280;32999;52.412;4.890;2023-02-13T02:55:42;103777.38;;;8.73;100.00
47260;BME280;32999;52.412;4.890;2023-02-13T03:00:48;103642.81;;;8.00;100.00
47260;BME280;32999;52.412;4.890;2023-02-13T03:06:12;103786.16;;;8.75;100.00
47260;BME280;32999;52.412;4.890;2023-02-13T03:11:15;103778.31;;;8.99;100.00
47260;BME280;32999;52.412;4.890;2023-02-13T03:16:35;103780.66;;;9.04;100.00
47260;BME280;32999;52.412;4.890;2023-02-13T03:21:57;103770.53;;;9.09;100.00
47260;BME280;32999;52.412;4.890;2023-02-13T03:27:28;103777.69;;;9.08;100.00
47260;BME280;32999;52.412;4.890;2023-02-13T03:32:58;103741.94;;;9.11;100.00
47260;BME280;32999;52.412;4.890;2023-02-13T03:38:08;103729.00;;;8.92;100.00
47260;BME280;32999;52.412;4.890;2023-02-13T03:43:14;103764.69;;;9.29;100.00
47260;BME280;32999;52.412;4.890;2023-02-13T03:48:19;103641.47;;;8.46;100.00
47260;BME280;32999;52.412;4.890;2023-02-13T03:53:47;103764.69;;;9.29;100.00
47260;BME280;32999;52.412;4.890;2023-02-13T03:58:53;103647.25;;;8.40;100.00
47260;BME280;32999;52.412;4.890;2023-02-13T04:04:23;103760.28;;;9.41;100.00
47260;BME280;32999;52.412;4.890;2023-02-13T04:09:29;103715.13;;;9.00;100.00
47260;BME280;32999;52.412;4.890;2023-02-13T04:14:36;103745.13;;;9.03;100.00
47260;BME280;32999;52.412;4.890;2023-02-13T04:19:39;103753.97;;;9.16;100.00
47260;BME280;32999;52.412;4.890;2023-02-13T04:24:42;103752.28;;;9.28;100.00
47260;BME280;32999;52.412;4.890;2023-02-13T04:29:44;103744.41;;;9.27;100.00
47260;BME280;32999;52.412;4.890;2023-02-13T04:34:46;103752.69;;;8.97;100.00
47260;BME280;32999;52.412;4.890;2023-02-13T04:39:49;103778.81;;;8.92;100.00
47260;BME280;32999;52.412;4.890;2023-02-13T04:44:51;103760.19;;;9.04;100.00
47260;BME280;32999;52.412;4.890;2023-02-13T04:49:53;103728.69;;;8.84;100.00
47260;BME280;32999;52.412;4.890;2023-02-13T04:54:56;103752.28;;;9.03;100.00
47260;BME280;32999;52.412;4.890;2023-02-13T04:59:58;103750.91;;;9.10;100.00
47260;BME280;32999;52.412;4.890;2023-02-13T05:04:59;103697.63;;;8.96;100.00
47260;BME280;32999;52.412;4.890;2023-02-13T05:10:03;103719.09;;;9.07;100.00
47260;BME280;32999;52.412;4.890;2023-02-13T05:15:06;103718.78;;;9.11;100.00
47260;BME280;32999;52.412;4.890;2023-02-13T05:20:08;103729.34;;;9.13;100.00
47260;BME280;32999;52.412;4.890;2023-02-13T05:25:12;103727.44;;;9.15;100.00
47260;BME280;32999;52.412;4.890;2023-02-13T05:30:14;103659.75;;;8.65;100.00
47260;BME280;32999;52.412;4.890;2023-02-13T05:35:16;103666.91;;;8.77;100.00
47260;BME280;32999;52.412;4.890;2023-02-13T05:40:19;103684.28;;;8.96;100.00
47260;BME280;32999;52.412;4.890;2023-02-13T05:45:22;103631.91;;;8.69;100.00
47260;BME280;32999;52.412;4.890;2023-02-13T05:50:24;103737.88;;;9.18;100.00
47260;BME280;32999;52.412;4.890;2023-02-13T05:55:27;103658.91;;;8.77;100.00
47260;BME280;32999;52.412;4.890;2023-02-13T06:00:29;103727.66;;;9.12;100.00
47260;BME280;32999;52.412;4.890;2023-02-13T06:05:31;103735.19;;;9.18;100.00
47260;BME280;32999;52.412;4.890;2023-02-13T06:10:34;103634.16;;;8.75;100.00
47260;BME280;32999;52.412;4.890;2023-02-13T06:15:35;103725.19;;;9.34;100.00
47260;BME280;32999;52.412;4.890;2023-02-13T06:20:37;103725.81;;;9.25;100.00
47260;BME280;32999;52.412;4.890;2023-02-13T06:25:40;103664.56;;;9.11;100.00
47260;BME280;32999;52.412;4.890;2023-02-13T06:30:42;103674.94;;;9.15;100.00
47260;BME280;32999;52.412;4.890;2023-02-13T06:35:44;103735.84;;;9.60;100.00
47260;BME280;32999;52.412;4.890;2023-02-13T06:40:47;103737.53;;;9.61;100.00
47260;BME280;32999;52.412;4.890;2023-02-13T06:45:50;103633.63;;;8.96;100.00
47260;BME280;32999;52.412;4.890;2023-02-13T06:50:53;103740.09;;;9.62;100.00
47260;BME280;32999;52.412;4.890;2023-02-13T06:56:01;103701.06;;;9.23;100.00
47260;BME280;32999;52.412;4.890;2023-02-13T07:01:04;103734.03;;;9.60;100.00
47260;BME280;32999;52.412;4.890;2023-02-13T07:06:24;103738.19;;;9.51;100.00
47260;BME280;32999;52.412;4.890;2023-02-13T07:11:30;103744.50;;;9.63;100.00
47260;BME280;32999;52.412;4.890;2023-02-13T07:16:32;103730.19;;;9.26;100.00
47260;BME280;32999;52.412;4.890;2023-02-13T07:21:36;103765.09;;;9.48;100.00
47260;BME280;32999;52.412;4.890;2023-02-13T07:26:40;103756.34;;;9.46;100.00
47260;BME280;32999;52.412;4.890;2023-02-13T07:31:42;103759.97;;;9.45;100.00
47260;BME280;32999;52.412;4.890;2023-02-13T07:36:43;103769.06;;;9.55;100.00
47260;BME280;32999;52.412;4.890;2023-02-13T07:41:50;103765.31;;;9.58;100.00
47260;BME280;32999;52.412;4.890;2023-02-13T07:47:07;103763.81;;;9.41;100.00
47260;BME280;32999;52.412;4.890;2023-02-13T07:52:11;103705.25;;;9.14;100.00
47260;BME280;32999;52.412;4.890;2023-02-13T07:57:15;103772.16;;;9.49;100.00
47260;BME280;32999;52.412;4.890;2023-02-13T08:02:17;103781.75;;;9.65;100.00
47260;BME280;32999;52.412;4.890;2023-02-13T08:07:19;103804.38;;;9.72;100.00
47260;BME280;32999;52.412;4.890;2023-02-13T08:12:22;103788.16;;;9.49;100.00
47260;BME280;32999;52.412;4.890;2023-02-13T08:17:25;103790.50;;;9.41;100.00
47260;BME280;32999;52.412;4.890;2023-02-13T08:22:31;103811.84;;;9.41;100.00
47260;BME280;32999;52.412;4.890;2023-02-13T08:27:38;103784.13;;;9.57;100.00
47260;BME280;32999;52.412;4.890;2023-02-13T08:32:40;103778.22;;;9.51;100.00
47260;BME280;32999;52.412;4.890;2023-02-13T08:37:43;103780.91;;;9.64;100.00
47260;BME280;32999;52.412;4.890;2023-02-13T08:42:48;103794.88;;;9.42;100.00
47260;BME280;32999;52.412;4.890;2023-02-13T08:47:50;103786.88;;;9.55;100.00
47260;BME280;32999;52.412;4.890;2023-02-13T08:52:51;103766.16;;;9.20;100.00
47260;BME280;32999;52.412;4.890;2023-02-13T08:57:55;103742.69;;;9.26;100.00
47260;BME280;32999;52.412;4.890;2023-02-13T09:02:59;103781.53;;;9.80;100.00
47260;BME280;32999;52.412;4.890;2023-02-13T09:08:03;103779.16;;;9.76;100.00
47260;BME280;32999;52.412;4.890;2023-02-13T09:13:12;103781.59;;;9.92;100.00
47260;BME280;32999;52.412;4.890;2023-02-13T09:18:14;103701.47;;;9.17;100.00
47260;BME280;32999;52.412;4.890;2023-02-13T09:23:15;103713.53;;;8.97;100.00
47260;BME280;32999;52.412;4.890;2023-02-13T09:28:19;103792.19;;;9.68;100.00
47260;BME280;32999;52.412;4.890;2023-02-13T09:33:22;103791.41;;;9.91;100.00
47260;BME280;32999;52.412;4.890;2023-02-13T09:38:24;103693.38;;;9.06;100.00
47260;BME280;32999;52.412;4.890;2023-02-13T09:43:30;103799.47;;;9.40;100.00
47260;BME280;32999;52.412;4.890;2023-02-13T09:48:36;103652.28;;;9.21;100.00
47260;BME280;32999;52.412;4.890;2023-02-13T09:53:39;103774.38;;;9.68;100.00
47260;BME280;32999;52.412;4.890;2023-02-13T09:58:47;103772.91;;;10.01;100.00
47260;BME280;32999;52.412;4.890;2023-02-13T10:04:04;103774.03;;;10.59;100.00
47260;BME280;32999;52.412;4.890;2023-02-13T10:09:13;103658.47;;;9.34;100.00
47260;BME280;32999;52.412;4.890;2023-02-13T10:14:20;103752.41;;;10.38;100.00
47260;BME280;32999;52.412;4.890;2023-02-13T10:19:31;103729.19;;;10.14;100.00
47260;BME280;32999;52.412;4.890;2023-02-13T10:24:41;103762.94;;;10.52;100.00
47260;BME280;32999;52.412;4.890;2023-02-13T10:29:55;103762.22;;;10.13;100.00
47260;BME280;32999;52.412;4.890;2023-02-13T10:35:22;103758.97;;;10.69;100.00
47260;BME280;32999;52.412;4.890;2023-02-13T10:40:30;103746.09;;;10.39;100.00
47260;BME280;32999;52.412;4.890;2023-02-13T10:45:55;103757.69;;;10.27;100.00
47260;BME280;32999;52.412;4.890;2023-02-13T10:51:04;103754.75;;;9.93;100.00
47260;BME280;32999;52.412;4.890;2023-02-13T10:56:18;103754.72;;;10.66;100.00
47260;BME280;32999;52.412;4.890;2023-02-13T11:01:32;103746.03;;;10.86;100.00
47260;BME280;32999;52.412;4.890;2023-02-13T11:06:37;103655.44;;;9.88;100.00
47260;BME280;32999;52.412;4.890;2023-02-13T11:11:42;103761.63;;;10.34;100.00
47260;BME280;32999;52.412;4.890;2023-02-13T11:17:00;103737.13;;;10.75;100.00
47260;BME280;32999;52.412;4.890;2023-02-13T11:22:05;103734.81;;;10.46;100.00
47260;BME280;32999;52.412;4.890;2023-02-13T11:27:10;103720.44;;;11.51;100.00
47260;BME280;32999;52.412;4.890;2023-02-13T11:32:20;103709.50;;;11.32;100.00
47260;BME280;32999;52.412;4.890;2023-02-13T11:37:25;103661.66;;;11.16;100.00
47260;BME280;32999;52.412;4.890;2023-02-13T11:42:29;103612.09;;;11.44;100.00
47260;BME280;32999;52.412;4.890;2023-02-13T11:47:37;103597.84;;;11.54;100.00
47260;BME280;32999;52.412;4.890;2023-02-13T11:52:40;103701.47;;;12.72;100.00
47260;BME280;32999;52.412;4.890;2023-02-13T11:57:55;103548.25;;;12.24;100.00
47260;BME280;32999;52.412;4.890;2023-02-13T12:02:58;103692.91;;;12.25;100.00
47260;BME280;32999;52.412;4.890;2023-02-13T12:08:00;103669.72;;;12.77;100.00
47260;BME280;32999;52.412;4.890;2023-02-13T12:13:11;103617.56;;;12.70;100.00
47260;BME280;32999;52.412;4.890;2023-02-13T12:18:20;103529.47;;;12.03;100.00
47260;BME280;32999;52.412;4.890;2023-02-13T12:23:30;103659.59;;;13.32;100.00
47260;BME280;32999;52.412;4.890;2023-02-13T12:28:46;103642.91;;;12.36;100.00
47260;BME280;32999;52.412;4.890;2023-02-13T12:34:31;103651.84;;;12.87;100.00
47260;BME280;32999;52.412;4.890;2023-02-13T12:39:41;103619.28;;;12.30;100.00
47260;BME280;32999;52.412;4.890;2023-02-13T12:45:12;103638.00;;;12.82;100.00
47260;BME280;32999;52.412;4.890;2023-02-13T12:50:34;103648.00;;;13.41;100.00
47260;BME280;32999;52.412;4.890;2023-02-13T12:56:10;103617.25;;;13.65;100.00
47260;BME280;32999;52.412;4.890;2023-02-13T13:01:29;103632.59;;;13.13;100.00
47260;BME280;32999;52.412;4.890;2023-02-13T13:06:58;103632.19;;;13.08;100.00
47260;BME280;32999;52.412;4.890;2023-02-13T13:12:16;103620.72;;;13.06;100.00
47260;BME280;32999;52.412;4.890;2023-02-13T13:17:30;103608.97;;;13.27;100.00
47260;BME280;32999;52.412;4.890;2023-02-13T13:22:38;103610.25;;;13.03;100.00
47260;BME280;32999;52.412;4.890;2023-02-13T13:27:44;103613.53;;;13.46;100.00
47260;BME280;32999;52.412;4.890;2023-02-13T13:32:53;103607.91;;;13.59;100.00
47260;BME280;32999;52.412;4.890;2023-02-13T13:38:04;103586.16;;;12.91;100.00
47260;BME280;32999;52.412;4.890;2023-02-13T13:43:19;103463.50;;;12.73;100.00
47260;BME280;32999;52.412;4.890;2023-02-13T13:48:41;103477.84;;;12.52;100.00
47260;BME280;32999;52.412;4.890;2023-02-13T13:54:21;103566.63;;;13.60;100.00
47260;BME280;32999;52.412;4.890;2023-02-13T14:05:09;103549.38;;;13.82;100.00
47260;BME280;32999;52.412;4.890;2023-02-13T14:15:58;103562.25;;;14.07;100.00
47260;BME280;32999;52.412;4.890;2023-02-13T14:21:01;103550.75;;;14.24;100.00
47260;BME280;32999;52.412;4.890;2023-02-13T14:26:24;103563.47;;;14.32;100.00
47260;BME280;32999;52.412;4.890;2023-02-13T14:31:31;103537.28;;;14.24;100.00
47260;BME280;32999;52.412;4.890;2023-02-13T14:36:35;103524.59;;;13.69;100.00
47260;BME280;32999;52.412;4.890;2023-02-13T14:41:55;103576.38;;;14.19;100.00
47260;BME280;32999;52.412;4.890;2023-02-13T14:47:02;103576.38;;;14.19;100.00
47260;BME280;32999;52.412;4.890;2023-02-13T14:52:05;103505.38;;;13.83;100.00
47260;BME280;32999;52.412;4.890;2023-02-13T14:57:14;103452.47;;;13.45;100.00
47260;BME280;32999;52.412;4.890;2023-02-13T15:02:22;103544.53;;;14.14;100.00
47260;BME280;32999;52.412;4.890;2023-02-13T15:07:26;103465.91;;;13.64;100.00
47260;BME280;32999;52.412;4.890;2023-02-13T15:12:31;103453.88;;;13.68;100.00
47260;BME280;32999;52.412;4.890;2023-02-13T15:17:47;103510.31;;;13.78;100.00
47260;BME280;32999;52.412;4.890;2023-02-13T15:22:50;103470.16;;;13.47;100.00
47260;BME280;32999;52.412;4.890;2023-02-13T15:27:52;103540.28;;;13.63;100.00
47260;BME280;32999;52.412;4.890;2023-02-13T15:32:58;103538.03;;;13.49;100.00
47260;BME280;32999;52.412;4.890;2023-02-13T15:43:26;103538.44;;;13.45;100.00
47260;BME280;32999;52.412;4.890;2023-02-13T15:48:38;103531.38;;;13.34;100.00
47260;BME280;32999;52.412;4.890;2023-02-13T15:53:52;103554.13;;;13.40;100.00
47260;BME280;32999;52.412;4.890;2023-02-13T15:58:54;103452.81;;;12.82;100.00
47260;BME280;32999;52.412;4.890;2023-02-13T16:04:05;103464.88;;;12.67;100.00
47260;BME280;32999;52.412;4.890;2023-02-13T16:09:23;103490.66;;;12.89;100.00
47260;BME280;32999;52.412;4.890;2023-02-13T16:14:28;103533.13;;;13.14;100.00
47260;BME280;32999;52.412;4.890;2023-02-13T16:19:35;103450.16;;;12.52;100.00
47260;BME280;32999;52.412;4.890;2023-02-13T16:30:32;103508.00;;;12.75;100.00
47260;BME280;32999;52.412;4.890;2023-02-13T16:35:39;103519.38;;;12.58;100.00
47260;BME280;32999;52.412;4.890;2023-02-13T16:40:43;103524.41;;;12.51;100.00
47260;BME280;32999;52.412;4.890;2023-02-13T16:45:45;103531.13;;;12.36;100.00
47260;BME280;32999;52.412;4.890;2023-02-13T16:50:54;103528.44;;;12.15;100.00
47260;BME280;32999;52.412;4.890;2023-02-13T16:55:56;103479.94;;;11.77;100.00
47260;BME280;32999;52.412;4.890;2023-02-13T17:01:00;103512.81;;;11.68;100.00
47260;BME280;32999;52.412;4.890;2023-02-13T17:06:04;103444.38;;;11.11;100.00
47260;BME280;32999;52.412;4.890;2023-02-13T17:11:07;103446.72;;;10.93;100.00
47260;BME280;32999;52.412;4.890;2023-02-13T17:16:09;103537.19;;;11.21;100.00
47260;BME280;32999;52.412;4.890;2023-02-13T17:21:13;103544.88;;;11.04;100.00
47260;BME280;32999;52.412;4.890;2023-02-13T17:26:15;103533.94;;;10.84;100.00
47260;BME280;32999;52.412;4.890;2023-02-13T17:31:17;103552.41;;;10.65;100.00
47260;BME280;32999;52.412;4.890;2023-02-13T17:36:20;103534.16;;;10.48;100.00
47260;BME280;32999;52.412;4.890;2023-02-13T17:41:22;103547.16;;;10.30;100.00
47260;BME280;32999;52.412;4.890;2023-02-13T17:46:23;103543.06;;;10.13;100.00
47260;BME280;32999;52.412;4.890;2023-02-13T17:51:26;103451.41;;;9.43;100.00
47260;BME280;32999;52.412;4.890;2023-02-13T17:56:28;103551.19;;;9.77;100.00
47260;BME280;32999;52.412;4.890;2023-02-13T18:01:30;103479.47;;;9.25;100.00
47260;BME280;32999;52.412;4.890;2023-02-13T18:06:33;103550.56;;;9.49;100.00
47260;BME280;32999;52.412;4.890;2023-02-13T18:11:35;103544.56;;;9.22;100.00
47260;BME280;32999;52.412;4.890;2023-02-13T18:16:36;103550.53;;;9.26;100.00
47260;BME280;32999;52.412;4.890;2023-02-13T18:21:40;103524.94;;;8.86;100.00
47260;BME280;32999;52.412;4.890;2023-02-13T18:26:42;103560.94;;;9.05;100.00
47260;BME280;32999;52.412;4.890;2023-02-13T18:31:43;103551.50;;;8.88;100.00
47260;BME280;32999;52.412;4.890;2023-02-13T18:36:46;103555.88;;;8.76;100.00
47260;BME280;32999;52.412;4.890;2023-02-13T18:41:48;103502.50;;;8.40;100.00
47260;BME280;32999;52.412;4.890;2023-02-13T18:46:50;103467.69;;;8.03;100.00
47260;BME280;32999;52.412;4.890;2023-02-13T18:51:53;103452.28;;;7.69;100.00
47260;BME280;32999;52.412;4.890;2023-02-13T18:56:55;103550.28;;;8.29;100.00
47260;BME280;32999;52.412;4.890;2023-02-13T19:01:57;103507.50;;;7.92;100.00
47260;BME280;32999;52.412;4.890;2023-02-13T19:07:01;103550.81;;;8.08;100.00
47260;BME280;32999;52.412;4.890;2023-02-13T19:12:17;103546.19;;;7.98;100.00
47260;BME280;32999;52.412;4.890;2023-02-13T19:17:24;103484.81;;;7.47;100.00
47260;BME280;32999;52.412;4.890;2023-02-13T19:22:30;103445.16;;;7.17;100.00
47260;BME280;32999;52.412;4.890;2023-02-13T19:27:52;103485.75;;;7.33;100.00
47260;BME280;32999;52.412;4.890;2023-02-13T20:16:14;103560.75;;;6.97;100.00
47260;BME280;32999;52.412;4.890;2023-02-13T20:22:24;103566.16;;;6.96;100.00
47260;BME280;32999;52.412;4.890;2023-02-13T20:27:31;103575.47;;;7.03;100.00
47260;BME280;32999;52.412;4.890;2023-02-13T20:32:56;103574.88;;;6.98;100.00
47260;BME280;32999;52.412;4.890;2023-02-13T20:47:15;103577.09;;;6.91;100.00
47260;BME280;32999;52.412;4.890;2023-02-13T21:01:52;103570.16;;;6.60;100.00
47260;BME280;32999;52.412;4.890;2023-02-13T21:07:43;103568.22;;;6.48;100.00
47260;BME280;32999;52.412;4.890;2023-02-13T21:12:55;103568.81;;;6.39;100.00
47260;BME280;32999;52.412;4.890;2023-02-13T21:18:06;103543.91;;;6.11;100.00
47260;BME280;32999;52.412;4.890;2023-02-13T21:23:11;103582.28;;;6.36;100.00
47260;BME280;32999;52.412;4.890;2023-02-13T21:28:16;103518.25;;;5.96;100.00
47260;BME280;32999;52.412;4.890;2023-02-13T21:33:20;103615.63;;;6.26;100.00
47260;BME280;32999;52.412;4.890;2023-02-13T21:38:28;103590.78;;;6.27;100.00
47260;BME280;32999;52.412;4.890;2023-02-13T21:43:31;103589.91;;;6.26;100.00
47260;BME280;32999;52.412;4.890;2023-02-13T21:48:39;103578.63;;;6.23;100.00
47260;BME280;32999;52.412;4.890;2023-02-13T21:53:41;103570.44;;;6.11;100.00
47260;BME280;32999;52.412;4.890;2023-02-13T21:59:02;103572.69;;;6.03;100.00
47260;BME280;32999;52.412;4.890;2023-02-13T22:04:19;103567.97;;;6.08;100.00
47260;BME280;32999;52.412;4.890;2023-02-13T22:09:24;103560.59;;;6.13;100.00
47260;BME280;32999;52.412;4.890;2023-02-13T22:14:28;103559.66;;;6.14;100.00
47260;BME280;32999;52.412;4.890;2023-02-13T22:19:35;103559.66;;;6.14;100.00
47260;BME280;32999;52.412;4.890;2023-02-13T22:24:37;103554.50;;;6.11;100.00
47260;BME280;32999;52.412;4.890;2023-02-13T22:29:42;103547.50;;;6.10;100.00
47260;BME280;32999;52.412;4.890;2023-02-13T22:35:02;103531.50;;;5.96;100.00
47260;BME280;32999;52.412;4.890;2023-02-13T22:40:06;103541.59;;;6.05;100.00
47260;BME280;32999;52.412;4.890;2023-02-13T22:45:13;103546.41;;;5.99;100.00
47260;BME280;32999;52.412;4.890;2023-02-13T22:50:20;103545.84;;;5.94;100.00
47260;BME280;32999;52.412;4.890;2023-02-13T22:55:38;103534.69;;;5.87;100.00
47260;BME280;32999;52.412;4.890;2023-02-13T23:01:27;103550.09;;;5.80;100.00
47260;BME280;32999;52.412;4.890;2023-02-13T23:13:38;103532.78;;;5.59;100.00
